createdAt,value
2023-04-14T00:02:04.397Z,2.40
2023-04-14T00:04:33.183Z,2.33
2023-04-14T00:07:02.153Z,2.60
2023-04-14T00:09:30.913Z,2.10
2023-04-14T00:11:59.391Z,3.53
2023-04-14T00:14:27.861Z,2.10
2023-04-14T00:16:57.728Z,2.27
2023-04-14T00:19:26.186Z,2.30
2023-04-14T00:21:54.631Z,2.40
2023-04-14T00:24:22.960Z,2.63
2023-04-14T00:26:51.692Z,2.33
2023-04-14T00:29:20.029Z,2.83
2023-04-14T00:31:48.298Z,2.73
2023-04-14T00:34:18.132Z,2.57
2023-04-14T00:36:46.544Z,2.50
2023-04-14T00:39:14.933Z,2.20
2023-04-14T00:41:44.112Z,2.57
2023-04-14T00:44:12.564Z,2.43
2023-04-14T00:46:41.908Z,2.47
2023-04-14T00:49:10.493Z,2.63
2023-04-14T00:51:40.261Z,2.30
2023-04-14T00:54:09.089Z,2.53
2023-04-14T00:56:37.558Z,2.63
2023-04-14T00:59:05.842Z,1.90
2023-04-14T01:01:35.118Z,2.33
2023-04-14T01:04:03.551Z,2.80
2023-04-14T01:06:32.098Z,2.60
2023-04-14T01:09:02.021Z,2.13
2023-04-14T01:11:32.662Z,2.23
2023-04-14T01:14:04.294Z,2.13
2023-04-14T01:16:33.981Z,2.07
2023-04-14T01:19:03.096Z,2.40
2023-04-14T01:21:33.101Z,2.90
2023-04-14T01:24:13.385Z,2.27
2023-04-14T01:26:42.264Z,1.73
2023-04-14T01:29:26.752Z,2.07
2023-04-14T01:31:57.244Z,2.23
2023-04-14T01:34:25.851Z,2.30
2023-04-14T01:36:55.145Z,2.43
2023-04-14T01:39:24.657Z,2.50
2023-04-14T01:41:54.408Z,2.27
2023-04-14T01:44:22.823Z,2.10
2023-04-14T01:46:51.326Z,1.90
2023-04-14T01:49:21.124Z,1.87
2023-04-14T01:51:49.634Z,1.63
2023-04-14T01:54:18.308Z,2.30
2023-04-14T01:56:46.675Z,2.43
2023-04-14T01:59:15.069Z,2.10
2023-04-14T02:01:43.762Z,2.30
2023-04-14T02:04:12.185Z,1.70
2023-04-14T02:06:42.062Z,2.33
2023-04-14T02:09:12.545Z,3.20
2023-04-14T02:11:40.951Z,3.17
2023-04-14T02:14:09.421Z,3.73
2023-04-14T02:16:38.158Z,4.27
2023-04-14T02:19:07.145Z,4.70
2023-04-14T02:21:35.589Z,5.03
2023-04-14T02:24:05.519Z,4.67
2023-04-14T02:26:33.923Z,4.90
2023-04-14T02:29:03.588Z,5.60
2023-04-14T02:31:32.483Z,5.17
2023-04-14T02:34:00.849Z,4.50
2023-04-14T02:36:29.875Z,4.33
2023-04-14T02:38:59.856Z,4.57
2023-04-14T02:41:30.712Z,4.20
2023-04-14T02:44:02.571Z,4.20
2023-04-14T02:46:31.436Z,3.73
2023-04-14T02:49:00.390Z,3.63
2023-04-14T02:51:29.120Z,4.07
2023-04-14T02:53:57.765Z,4.60
2023-04-14T02:56:26.531Z,4.20
2023-04-14T02:58:56.232Z,4.00
2023-04-14T03:01:24.710Z,3.67
2023-04-14T03:03:53.385Z,4.30
2023-04-14T03:06:21.989Z,4.30
2023-04-14T03:08:50.446Z,4.37
2023-04-14T03:11:18.912Z,4.40
2023-04-14T03:13:47.460Z,4.40
2023-04-14T03:16:17.305Z,4.03
2023-04-14T03:18:45.654Z,3.67
2023-04-14T03:21:16.713Z,4.10
2023-04-14T03:23:45.168Z,3.80
2023-04-14T03:26:13.701Z,3.30
2023-04-14T03:28:42.700Z,3.30
2023-04-14T03:31:11.054Z,2.53
2023-04-14T03:33:41.004Z,2.63
2023-04-14T03:36:09.534Z,2.60
2023-04-14T03:38:38.184Z,2.37
2023-04-14T03:41:07.439Z,2.20
2023-04-14T03:43:36.048Z,2.43
2023-04-14T03:46:06.092Z,2.63
2023-04-14T03:48:35.523Z,2.83
2023-04-14T03:51:08.552Z,2.93
2023-04-14T03:53:36.966Z,2.70
2023-04-14T03:56:05.555Z,2.40
2023-04-14T03:58:33.921Z,3.30
2023-04-14T04:01:02.311Z,3.47
2023-04-14T04:03:30.979Z,3.80
2023-04-14T04:05:59.578Z,3.80
2023-04-14T04:08:29.628Z,3.17
2023-04-14T04:10:58.113Z,3.40
2023-04-14T04:13:26.682Z,3.47
2023-04-14T04:15:55.709Z,3.37
2023-04-14T04:18:24.103Z,3.40
2023-04-14T04:20:52.468Z,4.07
2023-04-14T04:23:20.940Z,3.67
2023-04-14T04:25:50.664Z,4.13
2023-04-14T04:28:19.308Z,4.17
2023-04-14T04:30:47.615Z,3.97
2023-04-14T04:33:16.088Z,3.93
2023-04-14T04:35:44.548Z,3.77
2023-04-14T04:38:13.007Z,4.57
2023-04-14T04:40:41.868Z,4.60
2023-04-14T04:43:11.602Z,4.40
2023-04-14T04:45:46.581Z,4.90
2023-04-14T04:48:14.943Z,5.47
2023-04-14T04:50:43.335Z,6.17
2023-04-14T04:53:12.285Z,6.63
2023-04-14T04:55:40.948Z,5.97
2023-04-14T04:58:09.431Z,6.50
2023-04-14T05:00:39.210Z,6.43
2023-04-14T05:03:08.056Z,6.93
2023-04-14T05:05:37.612Z,6.37
2023-04-14T05:08:06.179Z,6.53
2023-04-14T05:10:36.686Z,6.00
2023-04-14T05:13:05.257Z,6.60
2023-04-14T05:15:33.889Z,6.07
2023-04-14T05:18:03.702Z,6.50
2023-04-14T05:20:33.765Z,6.63
2023-04-14T05:23:03.519Z,6.87
2023-04-14T05:25:31.845Z,5.97
2023-04-14T05:28:00.818Z,6.63
2023-04-14T05:30:29.285Z,7.43
2023-04-14T05:32:57.728Z,7.90
2023-04-14T05:35:27.566Z,6.90
2023-04-14T05:37:56.346Z,7.37
2023-04-14T05:40:24.738Z,9.13
2023-04-14T05:42:55.369Z,7.70
2023-04-14T05:45:25.081Z,9.17
2023-04-14T05:47:53.723Z,8.93
2023-04-14T05:50:23.077Z,8.80
2023-04-14T05:52:53.154Z,9.43
2023-04-14T05:55:22.070Z,8.40
2023-04-14T05:57:50.759Z,9.33
2023-04-14T06:00:19.584Z,9.50
2023-04-14T06:02:48.097Z,9.23
2023-04-14T06:05:16.692Z,9.60
2023-04-14T06:07:46.279Z,10.47
2023-04-14T06:10:16.276Z,10.07
2023-04-14T06:12:45.818Z,8.67
2023-04-14T06:15:14.319Z,8.87
2023-04-14T06:17:42.938Z,8.53
2023-04-14T06:20:12.339Z,8.67
2023-04-14T06:22:40.763Z,9.10
2023-04-14T06:25:10.979Z,9.97
2023-04-14T06:27:40.832Z,8.93
2023-04-14T06:30:09.790Z,8.73
2023-04-14T06:32:38.222Z,9.53
2023-04-14T06:35:07.044Z,9.07
2023-04-14T06:37:35.589Z,9.87
2023-04-14T06:40:04.065Z,9.63
2023-04-14T06:42:32.489Z,9.67
2023-04-14T06:45:02.385Z,9.10
2023-04-14T06:47:30.824Z,8.23
2023-04-14T06:49:59.706Z,7.70
2023-04-14T06:52:28.291Z,9.63
2023-04-14T06:54:56.775Z,7.63
2023-04-14T06:57:25.451Z,8.00
2023-04-14T06:59:54.120Z,7.40
2023-04-14T07:02:24.088Z,7.70
2023-04-14T07:04:52.573Z,7.70
2023-04-14T07:07:21.067Z,7.43
2023-04-14T07:09:49.801Z,7.53
2023-04-14T07:12:18.792Z,6.87
2023-04-14T07:14:51.827Z,6.87
2023-04-14T07:17:20.477Z,6.70
2023-04-14T07:19:55.095Z,6.43
2023-04-14T07:22:23.698Z,6.43
2023-04-14T07:24:52.081Z,6.10
2023-04-14T07:27:20.755Z,5.77
2023-04-14T07:29:49.321Z,5.43
2023-04-14T07:32:18.701Z,5.57
2023-04-14T07:34:47.294Z,5.37
2023-04-14T07:37:17.139Z,5.47
2023-04-14T07:39:45.893Z,5.43
2023-04-14T07:42:15.102Z,6.23
2023-04-14T07:44:43.600Z,5.13
2023-04-14T07:47:11.978Z,5.07
2023-04-14T07:49:40.307Z,4.83
2023-04-14T07:52:08.859Z,4.90
2023-04-14T07:54:38.824Z,4.23
2023-04-14T07:57:08.777Z,4.27
2023-04-14T07:59:38.276Z,4.93
2023-04-14T08:02:07.679Z,4.20
2023-04-14T08:04:36.598Z,4.10
2023-04-14T08:07:04.991Z,4.00
2023-04-14T08:09:33.757Z,4.63
2023-04-14T08:12:03.710Z,4.57
2023-04-14T08:14:32.377Z,4.37
2023-04-14T08:17:00.768Z,3.20
2023-04-14T08:19:30.436Z,3.00
2023-04-14T08:21:58.828Z,2.87
2023-04-14T08:24:27.450Z,2.90
2023-04-14T08:26:57.900Z,2.80
2023-04-14T08:29:27.877Z,2.63
2023-04-14T08:31:56.729Z,2.47
2023-04-14T08:34:28.313Z,2.30
2023-04-14T08:36:57.735Z,2.10
2023-04-14T08:39:26.272Z,2.77
2023-04-14T08:41:54.907Z,2.00
2023-04-14T08:44:25.994Z,2.00
2023-04-14T08:46:55.866Z,1.87
2023-04-14T08:49:26.229Z,2.10
2023-04-14T08:51:54.689Z,2.13
2023-04-14T08:54:23.566Z,1.90
2023-04-14T08:56:52.399Z,2.57
2023-04-14T08:59:21.503Z,1.80
2023-04-14T09:01:50.077Z,2.40
2023-04-14T09:04:20.452Z,2.03
2023-04-14T09:06:49.036Z,2.00
2023-04-14T09:09:17.401Z,1.70
2023-04-14T09:11:45.901Z,1.50
2023-04-14T09:14:14.508Z,1.67
2023-04-14T09:16:43.066Z,2.03
2023-04-14T09:19:11.827Z,1.83
2023-04-14T09:21:53.754Z,2.13
2023-04-14T09:24:30.990Z,2.03
2023-04-14T09:27:01.894Z,2.10
2023-04-14T09:29:30.599Z,1.93
2023-04-14T09:31:59.162Z,1.70
2023-04-14T09:34:28.049Z,2.47
2023-04-14T09:37:05.565Z,2.10
2023-04-14T09:39:34.029Z,1.97
2023-04-14T09:42:02.785Z,2.27
2023-04-14T09:44:31.341Z,1.83
2023-04-14T09:47:00.550Z,1.80
2023-04-14T09:49:29.363Z,2.07
2023-04-14T09:52:06.469Z,1.60
2023-04-14T09:54:36.361Z,1.97
2023-04-14T09:57:04.730Z,1.73
2023-04-14T09:59:34.444Z,1.80
2023-04-14T10:02:05.238Z,1.70
2023-04-14T10:04:33.751Z,2.23
2023-04-14T10:07:02.138Z,2.43
2023-04-14T10:09:31.060Z,2.30
2023-04-14T10:12:10.188Z,2.10
2023-04-14T10:14:38.909Z,2.70
2023-04-14T10:17:07.663Z,3.50
2023-04-14T10:19:36.329Z,2.27
2023-04-14T10:22:04.918Z,2.47
2023-04-14T10:24:33.491Z,2.67
2023-04-14T10:27:03.944Z,2.50
2023-04-14T10:29:34.044Z,2.90
2023-04-14T10:32:03.875Z,2.83
2023-04-14T10:34:33.047Z,2.60
2023-04-14T10:37:13.758Z,2.50
2023-04-14T10:39:42.722Z,2.03
2023-04-14T10:42:11.219Z,1.57
2023-04-14T10:44:41.068Z,1.60
2023-04-14T10:47:09.649Z,1.50
2023-04-14T10:49:38.557Z,1.60
2023-04-14T10:52:08.278Z,1.63
2023-04-14T10:54:53.673Z,1.63
2023-04-14T10:57:23.675Z,1.57
2023-04-14T10:59:55.439Z,1.80
2023-04-14T11:02:25.108Z,1.70
2023-04-14T11:05:00.721Z,1.73
2023-04-14T11:07:30.289Z,1.90
2023-04-14T11:10:19.464Z,1.77
2023-04-14T11:12:48.104Z,2.00
2023-04-14T11:15:18.085Z,1.87
2023-04-14T11:17:46.748Z,2.03
2023-04-14T11:20:15.977Z,1.83
2023-04-14T11:22:45.940Z,1.73
2023-04-14T11:25:14.743Z,2.13
2023-04-14T11:27:43.176Z,1.90
2023-04-14T11:30:15.267Z,1.80
2023-04-14T11:32:49.045Z,2.63
2023-04-14T11:35:17.547Z,1.90
2023-04-14T11:37:46.127Z,2.10
2023-04-14T11:40:14.946Z,2.00
2023-04-14T11:42:46.764Z,1.97
2023-04-14T11:45:16.468Z,1.87
2023-04-14T11:47:50.233Z,1.93
2023-04-14T11:50:18.731Z,2.60
2023-04-14T11:52:48.205Z,2.03
2023-04-14T11:55:16.687Z,1.93
2023-04-14T11:57:45.838Z,1.90
2023-04-14T12:00:15.187Z,1.47
2023-04-14T12:02:44.811Z,1.70
2023-04-14T12:05:14.919Z,2.20
2023-04-14T12:07:46.001Z,1.80
2023-04-14T12:10:14.588Z,1.50
2023-04-14T12:12:43.166Z,1.90
2023-04-14T12:15:11.872Z,1.63
2023-04-14T12:17:40.318Z,1.23
2023-04-14T12:20:15.707Z,1.50
2023-04-14T12:22:46.074Z,1.00
2023-04-14T12:25:15.496Z,1.47
2023-04-14T12:27:43.969Z,1.13
2023-04-14T12:30:13.384Z,1.53
2023-04-14T12:32:42.958Z,1.50
2023-04-14T12:35:12.242Z,1.20
2023-04-14T12:37:47.094Z,1.20
2023-04-14T12:40:17.133Z,1.27
2023-04-14T12:42:46.419Z,1.30
2023-04-14T12:45:15.062Z,1.60
2023-04-14T12:47:44.416Z,1.40
2023-04-14T12:50:25.892Z,1.53
2023-04-14T12:52:55.537Z,1.50
2023-04-14T12:55:25.743Z,1.40
2023-04-14T12:57:54.719Z,1.70
2023-04-14T13:00:23.181Z,1.20
2023-04-14T13:02:52.310Z,1.40
2023-04-14T13:05:21.147Z,1.40
2023-04-14T13:07:49.619Z,1.27
2023-04-14T13:10:18.132Z,1.20
2023-04-14T13:12:48.069Z,1.10
2023-04-14T13:16:10.801Z,1.00
2023-04-14T13:18:06.520Z,1.00
2023-04-14T13:20:35.257Z,1.47
2023-04-14T13:23:03.714Z,1.20
2023-04-14T13:25:32.235Z,1.23
2023-04-14T13:28:01.975Z,1.10
2023-04-14T13:30:31.022Z,1.20
2023-04-14T13:32:59.514Z,1.30
2023-04-14T13:35:28.140Z,1.30
2023-04-14T13:37:57.256Z,1.30
2023-04-14T13:40:25.832Z,1.10
2023-04-14T13:43:01.592Z,1.20
2023-04-14T13:45:32.353Z,1.00
2023-04-14T13:48:01.683Z,1.03
2023-04-14T13:50:30.889Z,1.30
2023-04-14T13:52:59.285Z,1.27
2023-04-14T13:55:27.759Z,1.00
2023-04-14T13:57:56.291Z,1.20
2023-04-14T14:00:24.698Z,1.10
2023-04-14T14:02:54.659Z,1.40
2023-04-14T14:05:23.199Z,1.10
2023-04-14T14:07:51.578Z,1.17
2023-04-14T14:10:20.033Z,0.90
2023-04-14T14:12:48.459Z,0.93
2023-04-14T14:15:17.020Z,1.10
2023-04-14T14:17:45.557Z,0.90
2023-04-14T14:20:15.786Z,1.17
2023-04-14T14:22:44.555Z,1.10
2023-04-14T14:25:19.198Z,1.10
2023-04-14T14:27:50.215Z,1.20
2023-04-14T14:30:18.625Z,1.10
2023-04-14T14:32:47.168Z,1.00
2023-04-14T14:35:17.356Z,1.20
2023-04-14T14:37:45.895Z,1.10
2023-04-14T14:40:14.922Z,1.43
2023-04-14T14:42:44.437Z,1.10
2023-04-14T14:45:13.417Z,1.40
2023-04-14T14:47:42.288Z,1.20
2023-04-14T14:50:11.117Z,1.20
2023-04-14T14:52:40.955Z,1.50
2023-04-14T14:55:10.004Z,1.40
2023-04-14T14:57:38.511Z,1.37
2023-04-14T15:00:08.047Z,1.13
2023-04-14T15:02:36.812Z,1.70
2023-04-14T15:05:07.386Z,1.50
2023-04-14T15:07:35.765Z,1.20
2023-04-14T15:10:06.374Z,1.03
2023-04-14T15:12:35.051Z,1.10
2023-04-14T15:15:03.500Z,1.10
2023-04-14T15:17:33.449Z,1.10
2023-04-14T15:20:04.814Z,1.10
2023-04-14T15:22:33.241Z,1.27
2023-04-14T15:25:01.702Z,1.43
2023-04-14T15:27:31.638Z,1.10
2023-04-14T15:30:00.311Z,1.90
2023-04-14T15:32:29.913Z,1.33
2023-04-14T15:34:59.216Z,1.90
2023-04-14T15:37:27.921Z,1.53
2023-04-14T15:39:56.948Z,1.10
2023-04-14T15:42:25.510Z,1.60
2023-04-14T15:44:55.528Z,1.10
2023-04-14T15:47:24.154Z,1.10
2023-04-14T15:50:09.847Z,1.20
2023-04-14T15:52:39.897Z,1.40
2023-04-14T15:55:09.302Z,1.60
2023-04-14T15:57:38.125Z,1.23
2023-04-14T16:00:09.947Z,1.20
2023-04-14T16:02:39.507Z,1.30
2023-04-14T16:05:08.951Z,1.30
2023-04-14T16:07:38.681Z,1.30
2023-04-14T16:10:08.935Z,1.13
2023-04-14T16:12:40.782Z,1.53
2023-04-14T16:15:11.120Z,1.47
2023-04-14T16:17:39.664Z,1.60
2023-04-14T16:20:08.632Z,1.70
2023-04-14T16:22:37.217Z,1.20
2023-04-14T16:25:06.877Z,1.30
2023-04-14T16:27:35.445Z,1.07
2023-04-14T16:30:04.009Z,1.50
2023-04-14T16:32:33.920Z,1.43
2023-04-14T16:35:02.391Z,1.83
2023-04-14T16:37:30.911Z,1.40
2023-04-14T16:39:59.296Z,1.50
2023-04-14T16:42:28.563Z,1.40
2023-04-14T16:44:57.053Z,1.70
2023-04-14T16:47:25.542Z,1.20
2023-04-14T16:49:56.632Z,1.50
2023-04-14T16:52:27.586Z,1.73
2023-04-14T16:54:56.324Z,1.40
2023-04-14T16:57:25.785Z,1.30
2023-04-14T16:59:54.602Z,1.50
2023-04-14T17:02:23.185Z,1.70
2023-04-14T17:04:51.912Z,2.10
2023-04-14T17:07:21.946Z,1.80
2023-04-14T17:09:50.383Z,1.30
2023-04-14T17:12:18.723Z,1.50
2023-04-14T17:14:47.064Z,1.70
2023-04-14T17:17:15.594Z,1.50
2023-04-14T17:19:44.022Z,1.40
2023-04-14T17:22:12.988Z,1.93
2023-04-14T17:24:52.186Z,1.50
2023-04-14T17:27:21.490Z,1.57
2023-04-14T17:29:49.946Z,1.67
2023-04-14T17:32:18.536Z,1.90
2023-04-14T17:34:47.149Z,2.67
2023-04-14T17:37:15.767Z,2.00
2023-04-14T17:39:44.122Z,1.70
2023-04-14T17:42:13.936Z,1.47
2023-04-14T17:44:42.455Z,1.40
2023-04-14T17:47:15.355Z,1.93
2023-04-14T17:49:44.101Z,1.57
2023-04-14T17:52:12.627Z,1.73
2023-04-14T17:54:41.190Z,2.23
2023-04-14T17:57:09.991Z,2.07
2023-04-14T17:59:40.051Z,1.97
2023-04-14T18:02:14.089Z,2.90
2023-04-14T18:04:42.789Z,1.87
2023-04-14T18:07:11.230Z,1.80
2023-04-14T18:09:42.065Z,1.70
2023-04-14T18:12:10.754Z,1.70
2023-04-14T18:14:41.636Z,1.80
2023-04-14T18:17:10.768Z,1.80
2023-04-14T18:19:39.239Z,2.07
2023-04-14T18:22:07.921Z,1.83
2023-04-14T18:29:41.086Z,2.10
2023-04-14T18:32:09.603Z,1.97
2023-04-14T18:34:38.293Z,1.77
2023-04-14T18:37:06.750Z,2.30
2023-04-14T18:39:36.818Z,2.27
2023-04-14T18:42:07.408Z,2.37
2023-04-14T18:44:35.754Z,2.33
2023-04-14T18:47:05.816Z,2.20
2023-04-14T18:49:34.309Z,2.17
2023-04-14T18:52:02.970Z,3.00
2023-04-14T18:54:32.019Z,2.20
2023-04-14T18:57:01.190Z,2.00
2023-04-14T18:59:29.858Z,2.70
2023-04-14T19:01:59.701Z,3.10
2023-04-14T19:04:30.497Z,2.00
2023-04-14T19:06:59.513Z,2.70
2023-04-14T19:09:28.692Z,2.23
2023-04-14T19:11:57.390Z,2.10
2023-04-14T19:14:25.946Z,2.50
2023-04-14T19:16:54.904Z,1.90
2023-04-14T19:19:23.436Z,2.10
2023-04-14T19:21:53.284Z,1.77
2023-04-14T19:24:21.765Z,2.00
2023-04-14T19:26:50.526Z,1.80
2023-04-14T19:29:19.085Z,1.90
2023-04-14T19:31:47.792Z,2.20
2023-04-14T19:34:16.366Z,1.80
2023-04-14T19:36:44.989Z,1.87
2023-04-14T19:39:14.877Z,2.43
2023-04-14T19:41:43.441Z,2.20
2023-04-14T19:44:12.098Z,1.80
2023-04-14T19:46:42.234Z,2.20
2023-04-14T19:49:11.547Z,2.27
2023-04-14T19:51:40.039Z,3.33
2023-04-14T19:54:08.828Z,2.90
2023-04-14T19:56:39.007Z,2.60
2023-04-14T19:59:08.460Z,2.03
2023-04-14T20:01:38.515Z,2.70
2023-04-14T20:04:12.032Z,2.80
2023-04-14T20:06:41.506Z,2.20
2023-04-14T20:09:10.261Z,2.60
2023-04-14T20:11:40.393Z,2.40
2023-04-14T20:14:08.852Z,2.70
2023-04-14T20:16:37.438Z,2.30
2023-04-14T20:19:06.019Z,2.53
2023-04-14T20:21:35.037Z,2.40
2023-04-14T20:24:04.140Z,2.80
2023-04-14T20:26:32.562Z,2.23
2023-04-14T20:29:02.899Z,2.80
2023-04-14T20:31:31.926Z,2.77
2023-04-14T20:34:00.471Z,2.90
2023-04-14T20:36:31.656Z,2.87
2023-04-14T20:39:00.501Z,3.30
2023-04-14T20:41:29.109Z,3.20
2023-04-14T20:43:57.496Z,2.97
2023-04-14T20:46:27.246Z,2.83
2023-04-14T20:48:55.697Z,2.70
2023-04-14T20:51:25.328Z,2.53
2023-04-14T20:53:53.960Z,3.30
2023-04-14T20:56:22.572Z,2.63
2023-04-14T20:58:51.753Z,2.90
2023-04-14T21:01:20.474Z,2.60
2023-04-14T21:03:50.420Z,2.40
2023-04-14T21:06:18.771Z,2.57
2023-04-14T21:08:47.325Z,2.73
2023-04-14T21:11:18.327Z,2.60
2023-04-14T21:15:30.014Z,2.93
2023-04-14T21:16:35.922Z,3.03
2023-04-14T21:19:06.478Z,9.53
2023-04-14T21:21:35.441Z,3.70
2023-04-14T21:24:04.249Z,4.00
2023-04-14T21:26:32.719Z,3.87
2023-04-14T21:29:01.673Z,3.13
2023-04-14T21:31:30.589Z,3.10
2023-04-14T21:33:59.216Z,2.43
2023-04-14T21:36:29.208Z,2.80
2023-04-14T21:38:58.498Z,2.97
2023-04-14T21:41:27.520Z,3.37
2023-04-14T21:43:55.903Z,2.90
2023-04-14T21:46:24.471Z,3.33
2023-04-14T21:48:52.955Z,3.57
2023-04-14T21:51:21.438Z,4.30
2023-04-14T21:53:51.229Z,4.97
2023-04-14T21:56:19.667Z,5.30
2023-04-14T21:58:48.101Z,5.10
2023-04-14T22:01:16.702Z,4.93
2023-04-14T22:03:45.319Z,4.80
2023-04-14T22:06:14.759Z,4.40
2023-04-14T22:08:43.302Z,4.47
2023-04-14T22:11:14.557Z,4.80
2023-04-14T22:13:43.170Z,4.67
2023-04-14T22:16:12.064Z,4.33
2023-04-14T22:18:40.508Z,4.50
2023-04-14T22:21:10.843Z,4.23
2023-04-14T22:23:43.841Z,4.30
2023-04-14T22:26:14.157Z,4.70
2023-04-14T22:28:42.601Z,4.93
2023-04-14T22:31:11.219Z,5.50
2023-04-14T22:33:39.682Z,4.60
2023-04-14T22:36:09.604Z,4.33
2023-04-14T22:38:37.993Z,4.33
2023-04-14T22:41:06.551Z,4.23
2023-04-14T22:43:36.383Z,4.20
2023-04-14T22:46:05.106Z,4.47
2023-04-14T22:48:33.634Z,3.93
2023-04-14T22:51:02.410Z,3.70
2023-04-14T22:53:31.348Z,3.67
2023-04-14T22:55:59.849Z,3.60
2023-04-14T22:58:32.125Z,4.10
2023-04-14T23:01:11.953Z,3.80
2023-04-14T23:03:51.327Z,4.60
2023-04-14T23:06:20.257Z,4.50
2023-04-14T23:08:48.914Z,5.33
2023-04-14T23:11:20.796Z,5.93
2023-04-14T23:13:50.085Z,4.50
2023-04-14T23:16:21.227Z,4.10
2023-04-14T23:18:52.471Z,4.13
2023-04-14T23:21:22.287Z,4.37
2023-04-14T23:23:51.208Z,4.13
2023-04-14T23:26:20.253Z,3.83
2023-04-14T23:28:48.747Z,4.67
2023-04-14T23:31:17.503Z,4.63
2023-04-14T23:33:49.566Z,4.33
2023-04-14T23:36:18.702Z,4.50
2023-04-14T23:38:47.156Z,4.33
2023-04-14T23:41:15.733Z,4.20
2023-04-14T23:43:44.274Z,5.00
2023-04-14T23:46:12.664Z,4.20
2023-04-14T23:48:41.307Z,4.30
2023-04-14T23:51:20.940Z,4.13
2023-04-14T23:53:49.819Z,4.60
2023-04-14T23:56:18.613Z,4.50
2023-04-14T23:58:47.204Z,4.30
